Time;durP1;ratioP1;P1;durP2;ratioP2;P2;SDS_P1;SDS_P2;PMS_P1;PMS_P2;Temp;Humidity;BMP_temperature;BMP_pressure;BME280_temperature;BME280_humidity;BME280_pressure;Samples;Min_cycle;Max_cycle;Signal;HPM_P1;HPM_P2
2021/08/20 00:00:59;;;;;;;0.10;0.10;;;;;;;14.70;88.56;101466.63;10508497;28;20031;-60
2021/08/20 00:05:59;;;;;;;0.10;0.10;;;;;;;14.68;88.51;101465.13;10530722;28;20555;-56
2021/08/20 00:11:03;;;;;;;0.00;0.00;;;;;;;14.66;88.16;101465.31;10498296;28;20023;-60
2021/08/20 00:16:03;;;;;;;0.10;0.10;;;;;;;14.63;88.43;101475.50;10513319;28;20030;-59
2021/08/20 00:21:04;;;;;;;0.10;0.10;;;;;;;14.57;88.32;101465.47;10536183;28;20030;-59
2021/08/20 00:26:04;;;;;;;0.08;0.08;;;;;;;14.49;88.53;101467.13;10535081;28;20024;-59
2021/08/20 00:31:05;;;;;;;0.10;0.10;;;;;;;14.42;88.63;101460.75;10535504;28;20024;-59
2021/08/20 00:36:05;;;;;;;0.10;0.10;;;;;;;14.39;88.79;101460.28;10523923;28;20111;-61
2021/08/20 00:41:09;;;;;;;0.05;0.05;;;;;;;14.34;88.88;101459.94;10496451;28;20024;-59
2021/08/20 00:46:10;;;;;;;0.10;0.10;;;;;;;14.30;88.73;101464.78;10475239;28;20290;-58
2021/08/20 00:51:22;;;;;;;0.10;0.10;;;;;;;14.30;89.09;101464.78;10493170;28;20072;-57
2021/08/20 00:56:23;;;;;;;0.10;0.10;;;;;;;14.28;89.23;101458.75;10492804;28;20035;-60
2021/08/20 01:01:24;;;;;;;0.10;0.10;;;;;;;14.27;89.08;101460.59;10492805;28;20024;-60
2021/08/20 01:06:28;;;;;;;0.10;0.10;;;;;;;14.30;89.27;101463.97;10504624;28;20024;-59
2021/08/20 01:11:28;;;;;;;0.10;0.10;;;;;;;14.31;89.21;101460.28;10503173;28;20760;-59
2021/08/20 01:16:30;;;;;;;0.10;0.10;;;;;;;14.31;88.98;101445.06;10491696;28;20161;-58
2021/08/20 01:21:30;;;;;;;0.00;0.00;;;;;;;14.33;89.28;101456.41;10474295;28;20020;-59
2021/08/20 01:26:32;;;;;;;0.10;0.10;;;;;;;14.34;89.50;101446.53;10491537;28;20029;-57
2021/08/20 01:31:32;;;;;;;0.10;0.10;;;;;;;14.35;89.48;101450.91;10473624;28;20047;-59
2021/08/20 01:36:32;;;;;;;0.10;0.10;;;;;;;14.33;89.66;101443.03;10503487;28;20032;-58
2021/08/20 01:41:33;;;;;;;0.10;0.10;;;;;;;14.32;90.27;101451.25;10501671;28;20033;-60
2021/08/20 01:46:34;;;;;;;0.10;0.10;;;;;;;14.27;90.80;101446.38;10525569;28;20099;-58
2021/08/20 01:51:34;;;;;;;0.10;0.10;;;;;;;14.19;90.56;101435.66;10532588;28;20020;-60
2021/08/20 01:56:36;;;;;;;0.00;0.00;;;;;;;14.15;91.15;101440.53;10532328;28;20110;-60
2021/08/20 02:01:36;;;;;;;0.10;0.10;;;;;;;14.10;91.58;101447.38;10532577;28;20111;-59
2021/08/20 02:06:36;;;;;;;0.10;0.10;;;;;;;14.06;92.05;101438.84;10532045;28;20068;-60
2021/08/20 02:11:38;;;;;;;0.10;0.10;;;;;;;14.02;92.21;101445.53;10529434;28;20076;-59
2021/08/20 02:16:38;;;;;;;0.10;0.10;;;;;;;13.99;92.48;101449.41;10497179;28;20093;-58
2021/08/20 02:21:39;;;;;;;0.10;0.10;;;;;;;13.96;92.60;101452.41;10494110;28;20046;-58
2021/08/20 02:26:39;;;;;;;0.10;0.10;;;;;;;13.94;92.95;101453.56;10490138;28;20029;-59
2021/08/20 02:31:40;;;;;;;0.10;0.10;;;;;;;13.90;93.55;101452.22;10493208;28;20024;-59
2021/08/20 02:36:40;;;;;;;0.10;0.10;;;;;;;13.90;93.14;101453.03;10499124;28;20483;-60
2021/08/20 02:41:40;;;;;;;0.10;0.10;;;;;;;13.89;93.50;101447.88;10491328;28;20020;-59
2021/08/20 02:46:41;;;;;;;0.10;0.10;;;;;;;13.88;94.20;101433.66;10490561;28;20021;-59
2021/08/20 02:51:41;;;;;;;0.10;0.10;;;;;;;13.87;93.46;101437.31;10494463;28;20029;-60
2021/08/20 02:56:42;;;;;;;0.10;0.10;;;;;;;13.86;93.86;101427.63;10500495;28;20025;-61
2021/08/20 03:01:48;;;;;;;0.10;0.10;;;;;;;13.87;93.99;101431.13;10502201;28;20031;-60
2021/08/20 03:06:48;;;;;;;0.10;0.10;;;;;;;13.85;94.03;101423.28;10500837;28;20479;-60
2021/08/20 03:11:48;;;;;;;0.10;0.10;;;;;;;13.85;93.96;101420.59;10519246;22;20502;-63
2021/08/20 03:16:49;;;;;;;0.10;0.10;;;;;;;13.82;94.38;101418.25;10537642;28;20115;-63
2021/08/20 03:21:49;;;;;;;0.10;0.10;;;;;;;13.84;94.05;101412.72;10538430;28;20438;-63
2021/08/20 03:26:50;;;;;;;0.10;0.10;;;;;;;13.84;94.04;101420.75;10538647;28;20110;-63
2021/08/20 03:31:50;;;;;;;0.10;0.10;;;;;;;13.84;94.36;101418.06;10529402;28;20024;-63
2021/08/20 03:36:50;;;;;;;0.10;0.10;;;;;;;13.81;94.76;101427.28;10496163;28;20032;-64
2021/08/20 03:41:51;;;;;;;0.10;0.10;;;;;;;13.81;94.57;101421.91;10535961;28;20047;-63
2021/08/20 03:46:51;;;;;;;0.10;0.10;;;;;;;13.81;94.97;101429.94;10521955;28;20031;-63
2021/08/20 03:51:51;;;;;;;0.00;0.00;;;;;;;13.82;95.22;101440.50;10536071;28;20270;-63
2021/08/20 03:56:52;;;;;;;0.10;0.10;;;;;;;13.81;95.09;101438.81;10536229;28;20024;-63
2021/08/20 04:01:52;;;;;;;0.10;0.10;;;;;;;13.82;95.33;101443.19;10535656;28;20012;-64
2021/08/20 04:06:52;;;;;;;0.10;0.10;;;;;;;13.83;95.10;101449.38;10502173;28;20494;-64
2021/08/20 04:11:53;;;;;;;0.10;0.10;;;;;;;13.81;95.05;101440.66;10495757;28;20021;-64
2021/08/20 04:16:53;;;;;;;0.10;0.10;;;;;;;13.79;94.91;101446.19;10514871;28;20020;-63
2021/08/20 04:21:53;;;;;;;0.10;0.10;;;;;;;13.81;94.93;101459.41;10526996;28;20042;-63
2021/08/20 04:26:54;;;;;;;0.10;0.10;;;;;;;13.80;94.95;101457.72;10532110;28;20027;-64
2021/08/20 04:31:56;;;;;;;0.00;0.00;;;;;;;13.80;94.94;101458.56;10535286;28;20080;-64
2021/08/20 04:36:57;;;;;;;0.00;0.00;;;;;;;13.81;94.67;101462.91;10535417;28;20032;-64
2021/08/20 04:41:57;;;;;;;0.10;0.10;;;;;;;13.85;95.04;101468.78;10521119;28;20547;-63
2021/08/20 04:46:57;;;;;;;0.10;0.10;;;;;;;13.86;94.47;101470.47;10512317;28;20028;-64
2021/08/20 04:51:58;;;;;;;0.10;0.10;;;;;;;13.88;94.54;101470.31;10514750;28;20024;-63
2021/08/20 04:56:58;;;;;;;0.10;0.10;;;;;;;13.90;94.39;101479.81;10527340;28;20039;-64
2021/08/20 05:01:58;;;;;;;0.10;0.10;;;;;;;13.90;94.17;101479.81;10497927;28;20019;-63
2021/08/20 05:06:59;;;;;;;0.10;0.10;;;;;;;13.93;94.33;101489.38;10533732;28;20024;-64
2021/08/20 05:12:00;;;;;;;0.10;0.10;;;;;;;13.97;94.20;101490.75;10533398;28;20026;-64
2021/08/20 05:17:01;;;;;;;0.10;0.10;;;;;;;14.00;94.29;101488.56;10532612;28;20035;-64
2021/08/20 05:22:01;;;;;;;0.10;0.10;;;;;;;14.04;94.37;101492.56;10511062;28;20020;-64
2021/08/20 05:27:02;;;;;;;0.10;0.10;;;;;;;14.06;93.82;101495.09;10514834;28;20012;-64
2021/08/20 05:32:02;;;;;;;0.10;0.10;;;;;;;14.08;94.12;101494.91;10532976;28;20286;-64
2021/08/20 05:37:03;;;;;;;0.10;0.10;;;;;;;14.13;94.17;101490.75;10532410;28;20023;-64
2021/08/20 05:42:03;;;;;;;0.10;0.10;;;;;;;14.19;94.08;101491.91;10532689;28;20118;-63
2021/08/20 05:47:04;;;;;;;0.10;0.10;;;;;;;14.28;93.68;101488.22;10532467;28;20038;-64
2021/08/20 05:52:05;;;;;;;0.10;0.10;;;;;;;14.37;93.11;101495.28;10531936;28;20646;-64
2021/08/20 05:57:05;;;;;;;0.00;0.00;;;;;;;14.63;92.80;101502.31;10494858;28;20041;-64
2021/08/20 06:02:05;;;;;;;0.10;0.10;;;;;;;14.85;92.04;101507.00;10532356;28;20024;-64
2021/08/20 06:07:07;;;;;;;0.03;0.03;;;;;;;15.06;91.28;101506.44;10531734;28;20020;-64
2021/08/20 06:12:07;;;;;;;0.10;0.10;;;;;;;15.53;90.69;101508.28;10529073;28;20696;-64
2021/08/20 06:17:08;;;;;;;0.10;0.10;;;;;;;15.99;88.79;101515.59;10472408;28;20391;-64
2021/08/20 06:22:08;;;;;;;0.10;0.10;;;;;;;15.96;87.61;101511.41;10503089;28;20435;-64
2021/08/20 06:27:08;;;;;;;0.10;0.10;;;;;;;15.76;88.11;101524.47;10530861;28;20082;-64
2021/08/20 06:32:09;;;;;;;0.10;0.10;;;;;;;15.53;88.69;101523.53;10531887;28;20051;-64
2021/08/20 06:37:09;;;;;;;0.10;0.10;;;;;;;15.38;89.46;101526.13;10511892;28;20038;-64
2021/08/20 06:42:09;;;;;;;0.00;0.00;;;;;;;15.31;90.41;101522.47;10539837;28;20077;-64
2021/08/20 06:47:10;;;;;;;0.00;0.00;;;;;;;15.29;90.43;101519.13;10539248;28;20016;-64
2021/08/20 06:52:11;;;;;;;0.10;0.10;;;;;;;15.28;90.47;101507.56;10511956;28;20012;-64
2021/08/20 06:57:13;;;;;;;0.00;0.00;;;;;;;15.31;90.39;101509.06;10534015;28;20032;-64
2021/08/20 07:02:13;;;;;;;0.10;0.10;;;;;;;15.48;90.32;101509.84;10539194;28;20012;-64
2021/08/20 07:07:13;;;;;;;0.10;0.10;;;;;;;15.73;90.37;101510.56;10539452;28;20512;-64
2021/08/20 07:12:14;;;;;;;0.00;0.00;;;;;;;16.12;88.75;101529.31;10538753;28;20413;-64
2021/08/20 07:17:14;;;;;;;0.00;0.00;;;;;;;16.29;86.78;101522.78;10538767;28;20596;-64
2021/08/20 07:22:14;;;;;;;0.10;0.10;;;;;;;16.25;86.92;101529.53;10519901;28;20106;-64
2021/08/20 07:27:15;;;;;;;0.00;0.00;;;;;;;16.06;87.16;101528.16;10493912;28;20043;-64
2021/08/20 07:32:15;;;;;;;0.00;0.00;;;;;;;15.96;88.08;101529.41;10478183;28;20058;-64
2021/08/20 07:37:16;;;;;;;0.10;0.10;;;;;;;16.03;88.32;101541.97;10523014;28;21921;-64
2021/08/20 07:42:19;;;;;;;0.10;0.10;;;;;;;16.11;87.75;101540.22;10524997;28;20017;-64
2021/08/20 07:47:19;;;;;;;0.00;0.00;;;;;;;16.26;87.35;101535.75;10537626;28;20020;-65
2021/08/20 07:52:19;;;;;;;0.00;0.00;;;;;;;16.40;86.98;101532.28;10536609;28;20024;-64
2021/08/20 07:57:20;;;;;;;0.10;0.10;;;;;;;16.61;86.29;101537.00;10507953;28;20042;-64
2021/08/20 08:02:20;;;;;;;0.00;0.00;;;;;;;16.88;86.06;101535.59;10536524;28;20020;-64
2021/08/20 08:07:20;;;;;;;0.10;0.10;;;;;;;17.43;84.86;101546.94;10536328;28;20386;-64
2021/08/20 08:12:20;;;;;;;0.00;0.00;;;;;;;17.78;83.84;101539.13;10509324;28;20077;-64
2021/08/20 08:17:21;;;;;;;0.10;0.10;;;;;;;17.83;82.46;101540.22;10490782;28;20055;-64
2021/08/20 08:22:21;;;;;;;0.10;0.10;;;;;;;17.64;83.08;101555.09;10493088;28;20467;-64
2021/08/20 08:27:21;;;;;;;0.00;0.00;;;;;;;17.45;83.15;101550.25;10537015;28;20434;-64
2021/08/20 08:32:22;;;;;;;0.00;0.00;;;;;;;17.20;84.68;101555.09;10536699;28;20020;-64
2021/08/20 08:37:22;;;;;;;0.00;0.00;;;;;;;16.93;85.43;101553.88;10515056;28;20772;-64
2021/08/20 08:42:22;;;;;;;0.10;0.10;;;;;;;16.85;86.62;101560.16;10481798;28;20067;-64
2021/08/20 08:47:23;;;;;;;0.10;0.10;;;;;;;16.81;87.35;101558.00;10524986;28;20012;-64
2021/08/20 08:52:23;;;;;;;0.10;0.10;;;;;;;16.73;87.69;101556.22;10526269;28;20103;-64
2021/08/20 08:57:24;;;;;;;0.00;0.00;;;;;;;16.73;88.40;101553.53;10492324;28;20097;-64
2021/08/20 09:02:25;;;;;;;0.10;0.10;;;;;;;16.70;88.41;101557.41;10535195;28;20027;-65
2021/08/20 09:07:29;;;;;;;0.10;0.10;;;;;;;16.60;89.43;101562.19;10529774;28;20051;-65
2021/08/20 09:12:29;;;;;;;0.10;0.10;;;;;;;16.57;90.18;101564.41;10529684;22;20052;-65
2021/08/20 09:17:32;;;;;;;0.10;0.10;;;;;;;16.52;90.39;101571.19;10481967;28;20487;-65
2021/08/20 09:22:33;;;;;;;0.10;0.10;;;;;;;16.60;90.93;101566.75;10490853;28;20024;-66
2021/08/20 09:27:35;;;;;;;0.10;0.10;;;;;;;16.81;91.28;101568.78;10490951;28;20024;-66
2021/08/20 09:32:43;;;;;;;0.00;0.00;;;;;;;17.15;89.95;101562.91;10490526;28;20096;-66
2021/08/20 09:37:43;;;;;;;0.10;0.10;;;;;;;17.70;89.21;101563.44;10461539;28;20487;-66
2021/08/20 09:42:43;;;;;;;0.10;0.10;;;;;;;18.00;87.24;101558.84;10486933;28;20127;-66
2021/08/20 09:47:47;;;;;;;0.00;0.00;;;;;;;18.69;87.66;101555.59;10472611;28;20274;-66
2021/08/20 09:52:49;;;;;;;0.10;0.10;;;;;;;19.05;84.25;101558.16;10471324;28;20463;-65
2021/08/20 09:57:49;;;;;;;0.00;0.00;;;;;;;19.05;83.72;101568.94;10467363;28;20606;-65
2021/08/20 10:02:50;;;;;;;0.10;0.10;;;;;;;19.13;82.38;101557.19;10455235;28;20120;-65
2021/08/20 10:07:51;;;;;;;0.00;0.00;;;;;;;19.18;82.59;101563.66;10469564;28;20431;-65
2021/08/20 10:12:56;;;;;;;0.10;0.10;;;;;;;19.57;81.37;101566.78;10466355;28;20032;-65
2021/08/20 10:17:56;;;;;;;0.10;0.10;;;;;;;20.07;77.87;101557.44;10469665;28;20029;-65
2021/08/20 10:22:57;;;;;;;0.00;0.00;;;;;;;20.02;78.84;101564.50;10468046;28;20033;-65
2021/08/20 10:27:58;;;;;;;0.03;0.03;;;;;;;19.81;78.76;101569.00;10442915;28;20023;-65
2021/08/20 10:33:04;;;;;;;0.00;0.00;;;;;;;19.76;79.78;101571.47;10474133;28;20016;-65
2021/08/20 10:38:30;;;;;;;0.10;0.10;;;;;;;20.19;78.30;101563.09;10447391;28;20037;-65
2021/08/20 10:43:50;;;;;;;0.00;0.00;;;;;;;21.34;74.08;101568.28;10465915;28;20017;-65
2021/08/20 10:49:10;;;;;;;0.10;0.10;;;;;;;22.14;73.59;101574.25;10512787;28;20047;-66
2021/08/20 10:54:10;;;;;;;0.10;0.10;;;;;;;22.03;70.24;101567.63;10467447;28;20036;-66
2021/08/20 10:59:37;;;;;;;0.10;0.10;;;;;;;21.70;69.68;101560.50;10485860;28;20078;-66
2021/08/20 11:05:02;;;;;;;0.10;0.10;;;;;;;21.13;71.50;101583.75;10474760;28;20125;-66
2021/08/20 11:10:08;;;;;;;0.00;0.00;;;;;;;20.68;72.83;101585.44;10469511;28;20025;-65
2021/08/20 11:15:20;;;;;;;0.00;0.00;;;;;;;20.40;72.93;101588.31;10466854;28;20379;-66
2021/08/20 11:20:28;;;;;;;0.00;0.00;;;;;;;20.18;74.67;101596.56;10475096;28;20031;-66
2021/08/20 11:25:38;;;;;;;0.00;0.00;;;;;;;19.86;74.03;101596.25;10474750;28;20475;-66
2021/08/20 11:30:39;;;;;;;0.00;0.00;;;;;;;19.71;75.59;101610.94;10487587;28;20021;-66
2021/08/20 11:35:42;;;;;;;0.00;0.00;;;;;;;19.53;75.71;101616.84;10467712;28;20171;-65
2021/08/20 11:40:50;;;;;;;0.00;0.00;;;;;;;19.47;76.14;101618.47;10479423;28;20020;-66
2021/08/20 11:45:59;;;;;;;0.00;0.00;;;;;;;19.69;76.82;101624.66;10443061;28;20031;-65
2021/08/20 11:51:02;;;;;;;0.00;0.00;;;;;;;20.03;74.63;101617.53;10470832;28;20458;-66
2021/08/20 11:56:11;;;;;;;0.10;0.10;;;;;;;20.15;73.76;101618.59;10474442;28;20106;-65
2021/08/20 12:01:25;;;;;;;0.00;0.00;;;;;;;20.04;73.01;101614.63;10473959;28;20116;-65
2021/08/20 12:06:27;;;;;;;0.08;0.08;;;;;;;20.10;74.51;101621.09;10477626;28;20032;-65
2021/08/20 12:11:29;;;;;;;0.00;0.00;;;;;;;20.74;72.53;101626.06;10483167;28;20086;-64
2021/08/20 12:16:44;;;;;;;0.00;0.00;;;;;;;21.29;69.43;101624.97;10463133;28;20433;-64
2021/08/20 12:21:50;;;;;;;0.00;0.00;;;;;;;21.64;68.35;101617.44;10468821;28;20393;-64
2021/08/20 12:27:16;;;;;;;0.00;0.00;;;;;;;21.32;70.15;101629.97;10467070;28;20021;-64
2021/08/20 12:32:20;;;;;;;0.00;0.00;;;;;;;20.54;72.42;101638.75;10480068;28;20107;-67
2021/08/20 12:37:21;;;;;;;0.10;0.10;;;;;;;19.83;77.45;101644.47;10452393;28;20040;-68
2021/08/20 12:42:23;;;;;;;0.10;0.10;;;;;;;19.58;78.72;101646.81;10478050;28;20030;-68
2021/08/20 12:47:28;;;;;;;0.00;0.00;;;;;;;19.57;79.46;101650.53;10491793;28;20346;-68
2021/08/20 12:52:28;;;;;;;0.00;0.00;;;;;;;19.58;79.00;101654.94;10476327;28;20016;-68
2021/08/20 12:57:29;;;;;;;0.00;0.00;;;;;;;19.41;77.74;101655.22;10455655;28;20033;-68
2021/08/20 13:02:29;;;;;;;0.00;0.00;;;;;;;19.34;77.63;101657.03;10458936;28;20028;-68
2021/08/20 13:07:30;;;;;;;0.00;0.00;;;;;;;19.24;77.97;101661.97;10464112;28;20151;-67
2021/08/20 13:12:30;;;;;;;0.00;0.00;;;;;;;19.03;77.34;101670.09;10479988;28;20436;-67
2021/08/20 13:17:30;;;;;;;0.10;0.10;;;;;;;18.86;76.33;101677.63;10462532;28;20041;-67
2021/08/20 13:22:31;;;;;;;0.00;0.00;;;;;;;18.79;76.30;101674.84;10458482;28;20024;-66
2021/08/20 13:27:32;;;;;;;0.00;0.00;;;;;;;18.95;77.83;101676.47;10471593;28;20024;-67
2021/08/20 13:32:32;;;;;;;0.00;0.00;;;;;;;19.07;75.08;101671.38;10470677;28;20306;-67
2021/08/20 13:37:33;;;;;;;0.10;0.10;;;;;;;19.12;75.57;101666.22;10471686;28;20040;-66
2021/08/20 13:42:33;;;;;;;0.00;0.00;;;;;;;19.11;75.61;101670.81;10469564;28;20039;-67
2021/08/20 13:47:33;;;;;;;0.10;0.10;;;;;;;19.18;75.10;101677.09;10444799;28;20341;-67
2021/08/20 13:52:34;;;;;;;0.10;0.10;;;;;;;19.27;73.73;101674.25;10473969;28;20410;-66
2021/08/20 13:57:35;;;;;;;0.10;0.10;;;;;;;19.31;74.93;101680.91;10487650;28;20361;-67
2021/08/20 14:02:36;;;;;;;0.00;0.00;;;;;;;19.17;74.34;101682.69;10472909;28;20032;-67
2021/08/20 14:07:38;;;;;;;0.10;0.10;;;;;;;19.28;74.91;101689.41;10440234;28;20021;-66
2021/08/20 14:12:38;;;;;;;0.00;0.00;;;;;;;19.79;73.48;101686.47;10476159;28;20024;-67
2021/08/20 14:17:39;;;;;;;0.00;0.00;;;;;;;19.83;71.21;101687.72;10459810;28;20025;-66
2021/08/20 14:22:40;;;;;;;0.00;0.00;;;;;;;19.92;72.90;101688.41;10442722;28;20028;-66
2021/08/20 14:27:41;;;;;;;0.00;0.00;;;;;;;19.85;71.89;101691.91;10445344;28;20065;-66
2021/08/20 14:32:41;;;;;;;0.00;0.00;;;;;;;19.79;71.24;101687.31;10446770;28;20405;-66
2021/08/20 14:37:41;;;;;;;0.00;0.00;;;;;;;19.63;69.38;101691.13;10429221;28;20032;-65
2021/08/20 14:42:42;;;;;;;0.00;0.00;;;;;;;19.44;70.02;101698.06;10455686;28;20037;-66
2021/08/20 14:47:42;;;;;;;0.00;0.00;;;;;;;19.19;72.31;101699.50;10454758;28;20089;-66
2021/08/20 14:52:45;;;;;;;0.00;0.00;;;;;;;19.16;71.85;101702.59;10470667;28;20178;-66
2021/08/20 14:57:45;;;;;;;0.10;0.10;;;;;;;19.14;71.31;101705.53;10452807;28;20032;-66
2021/08/20 15:02:45;;;;;;;0.10;0.10;;;;;;;19.00;71.90;101709.13;10458468;28;20028;-66
2021/08/20 15:07:46;;;;;;;0.00;0.00;;;;;;;19.19;73.20;101710.31;10453056;28;20015;-65
2021/08/20 15:12:54;;;;;;;0.00;0.00;;;;;;;19.17;72.25;101709.69;10454982;28;20064;-66
2021/08/20 15:17:54;;;;;;;0.00;0.00;;;;;;;19.15;72.14;101704.47;10502433;22;20453;-62
2021/08/20 15:22:55;;;;;;;0.05;0.05;;;;;;;19.04;71.25;101696.91;10508690;28;20221;-60
2021/08/20 15:27:55;;;;;;;0.00;0.00;;;;;;;18.88;71.62;101700.72;10519096;28;20027;-60
2021/08/20 15:32:56;;;;;;;0.10;0.10;;;;;;;18.84;71.67;101707.50;10499024;28;20025;-60
2021/08/20 15:37:56;;;;;;;0.00;0.00;;;;;;;18.81;71.36;101713.28;10529557;28;20845;-60
2021/08/20 15:42:56;;;;;;;0.00;0.00;;;;;;;18.87;73.15;101711.69;10537318;28;20632;-61
2021/08/20 15:47:57;;;;;;;0.00;0.00;;;;;;;18.92;73.17;101710.06;10516435;28;20020;-60
2021/08/20 15:52:57;;;;;;;0.00;0.00;;;;;;;19.06;72.68;101715.63;10517742;28;20244;-60
2021/08/20 15:57:59;;;;;;;0.00;0.00;;;;;;;19.11;71.33;101722.09;10534806;28;20051;-60
2021/08/20 16:02:59;;;;;;;0.00;0.00;;;;;;;19.01;70.36;101729.69;10494728;28;20304;-57
2021/08/20 16:08:00;;;;;;;0.10;0.10;;;;;;;18.91;71.28;101730.00;10494795;28;20138;-61
2021/08/20 16:13:00;;;;;;;0.00;0.00;;;;;;;18.75;72.94;101733.78;10489803;28;20660;-56
2021/08/20 16:18:01;;;;;;;0.10;0.10;;;;;;;18.65;71.21;101737.81;10513102;28;20425;-59
2021/08/20 16:23:02;;;;;;;0.03;0.03;;;;;;;18.52;72.34;101731.19;10535278;28;20024;-59
2021/08/20 16:28:03;;;;;;;0.10;0.10;;;;;;;18.47;71.76;101739.06;10537921;28;20028;-60
2021/08/20 16:33:03;;;;;;;0.00;0.00;;;;;;;18.38;72.17;101725.84;10536948;28;20436;-56
2021/08/20 16:38:04;;;;;;;0.10;0.10;;;;;;;18.26;73.65;101730.88;10537364;28;20503;-58
2021/08/20 16:43:05;;;;;;;0.00;0.00;;;;;;;18.14;74.08;101727.00;10535044;28;20671;-59
2021/08/20 16:48:05;;;;;;;0.00;0.00;;;;;;;18.01;74.35;101731.19;10523471;28;20089;-59
2021/08/20 16:53:06;;;;;;;0.00;0.00;;;;;;;17.89;73.76;101729.97;10494183;28;20536;-59
2021/08/20 16:58:06;;;;;;;0.00;0.00;;;;;;;17.76;73.92;101735.13;10494548;28;20081;-59
2021/08/20 17:03:06;;;;;;;0.00;0.00;;;;;;;17.63;74.72;101731.22;10494122;28;20283;-59
2021/08/20 17:08:07;;;;;;;0.00;0.00;;;;;;;17.58;75.67;101754.34;10493840;28;20029;-60
2021/08/20 17:13:08;;;;;;;0.00;0.00;;;;;;;17.51;75.91;101753.38;10493559;28;20024;-59
2021/08/20 17:18:11;;;;;;;0.10;0.10;;;;;;;17.39;75.04;101759.22;10493074;28;20391;-56
2021/08/20 17:23:11;;;;;;;0.10;0.10;;;;;;;17.28;73.98;101758.78;10493106;28;20043;-58
2021/08/20 17:28:11;;;;;;;0.00;0.00;;;;;;;17.18;74.40;101764.44;10493311;28;20028;-59
2021/08/20 17:33:11;;;;;;;0.10;0.10;;;;;;;17.07;76.16;101767.53;10492756;28;20032;-59
2021/08/20 17:38:12;;;;;;;0.10;0.10;;;;;;;16.92;76.99;101772.84;10493032;28;20033;-58
2021/08/20 17:43:12;;;;;;;0.10;0.10;;;;;;;16.80;77.93;101777.81;10492732;28;20036;-58
2021/08/20 17:48:12;;;;;;;0.10;0.10;;;;;;;16.68;78.25;101784.56;10504217;28;20302;-58
2021/08/20 17:53:17;;;;;;;0.10;0.10;;;;;;;16.58;79.45;101779.41;10533893;28;20028;-56
2021/08/20 17:58:19;;;;;;;0.10;0.10;;;;;;;16.47;80.22;101796.75;10532859;28;20505;-60
2021/08/20 18:03:19;;;;;;;0.10;0.10;;;;;;;16.35;79.88;101797.31;10533692;28;20024;-58
2021/08/20 18:08:21;;;;;;;0.10;0.10;;;;;;;16.22;81.16;101789.78;10534097;28;20103;-58
2021/08/20 18:13:22;;;;;;;0.10;0.10;;;;;;;16.05;81.65;101799.75;10533453;28;20020;-57
2021/08/20 18:18:22;;;;;;;0.05;0.05;;;;;;;15.91;82.17;101806.69;10510819;28;20028;-58
2021/08/20 18:23:22;;;;;;;0.10;0.10;;;;;;;15.77;82.25;101810.88;10497014;28;20028;-56
2021/08/20 18:28:23;;;;;;;0.10;0.10;;;;;;;15.64;82.87;101818.56;10500693;28;20029;-58
2021/08/20 18:33:24;;;;;;;0.10;0.10;;;;;;;15.49;82.95;101823.78;10499595;28;20027;-58
2021/08/20 18:38:24;;;;;;;0.10;0.10;;;;;;;15.35;83.37;101825.25;10499786;28;20063;-59
2021/08/20 18:43:25;;;;;;;0.00;0.00;;;;;;;15.22;83.79;101832.97;10499597;28;20028;-59
2021/08/20 18:48:26;;;;;;;0.10;0.10;;;;;;;15.10;84.56;101835.13;10507737;28;20027;-56
2021/08/20 18:53:27;;;;;;;0.10;0.10;;;;;;;15.00;85.15;101837.13;10498933;28;20024;-59
2021/08/20 18:58:27;;;;;;;0.10;0.10;;;;;;;14.89;85.91;101843.63;10499167;28;20107;-58
2021/08/20 19:03:28;;;;;;;0.10;0.10;;;;;;;14.78;85.93;101849.28;10498598;28;20012;-55
2021/08/20 19:08:28;;;;;;;0.10;0.10;;;;;;;14.67;86.45;101857.63;10498843;28;20055;-57
2021/08/20 19:13:29;;;;;;;0.10;0.10;;;;;;;14.56;86.68;101869.47;10497977;28;20544;-58
2021/08/20 19:18:29;;;;;;;0.10;0.10;;;;;;;14.44;87.06;101878.75;10496518;28;20277;-58
2021/08/20 19:23:30;;;;;;;0.00;0.00;;;;;;;14.36;87.81;101878.69;10497722;28;20035;-58
2021/08/20 19:28:31;;;;;;;0.10;0.10;;;;;;;14.29;88.39;101883.03;10496930;28;20074;-58
2021/08/20 19:33:31;;;;;;;0.10;0.10;;;;;;;14.23;88.36;101890.69;10496297;28;20051;-59
2021/08/20 19:38:31;;;;;;;0.10;0.10;;;;;;;14.15;88.64;101892.47;10497594;28;20029;-56
2021/08/20 19:43:32;;;;;;;0.10;0.10;;;;;;;14.09;89.46;101890.41;10496892;28;20020;-57
2021/08/20 19:48:32;;;;;;;0.00;0.00;;;;;;;14.02;89.61;101896.41;10496176;28;20024;-57
2021/08/20 19:53:33;;;;;;;0.10;0.10;;;;;;;13.95;90.30;101900.69;10496179;28;20034;-58
2021/08/20 19:58:33;;;;;;;0.10;0.10;;;;;;;13.86;90.27;101898.09;10496316;28;20032;-55
2021/08/20 20:03:34;;;;;;;0.10;0.10;;;;;;;13.84;90.79;101908.13;10494547;28;20016;-59
2021/08/20 20:08:34;;;;;;;0.10;0.10;;;;;;;13.78;90.97;101915.75;10496227;28;20530;-57
2021/08/20 20:13:34;;;;;;;0.00;0.00;;;;;;;13.75;91.26;101925.94;10495110;28;20055;-58
2021/08/20 20:18:34;;;;;;;0.10;0.10;;;;;;;13.70;91.75;101925.56;10494980;28;20035;-57
2021/08/20 20:23:35;;;;;;;0.10;0.10;;;;;;;13.66;91.82;101926.88;10494791;28;20028;-58
2021/08/20 20:28:36;;;;;;;0.00;0.00;;;;;;;13.64;92.36;101926.16;10491481;28;20463;-58
2021/08/20 20:33:36;;;;;;;0.10;0.10;;;;;;;13.60;92.24;101931.00;10493103;28;20056;-58
2021/08/20 20:38:37;;;;;;;0.10;0.10;;;;;;;13.57;92.47;101932.13;10487708;28;20110;-57
2021/08/20 20:43:37;;;;;;;0.10;0.10;;;;;;;13.58;93.25;101939.19;10494105;28;20095;-57
2021/08/20 20:48:38;;;;;;;0.00;0.00;;;;;;;13.56;93.13;101941.16;10494952;28;20630;-58
2021/08/20 20:53:38;;;;;;;0.10;0.10;;;;;;;13.58;93.14;101943.69;10493727;28;20032;-57
2021/08/20 20:58:39;;;;;;;0.10;0.10;;;;;;;13.55;93.54;101942.16;10495336;28;20040;-58
2021/08/20 21:03:39;;;;;;;0.10;0.10;;;;;;;13.55;93.32;101946.66;10491920;28;20023;-57
2021/08/20 21:08:40;;;;;;;0.10;0.10;;;;;;;13.52;93.55;101953.16;10481520;28;20493;-59
2021/08/20 21:13:41;;;;;;;0.10;0.10;;;;;;;13.48;93.01;101948.28;10488416;28;20116;-59
2021/08/20 21:18:41;;;;;;;0.00;0.00;;;;;;;13.42;93.40;101960.41;10493511;28;20028;-58
2021/08/20 21:23:41;;;;;;;0.10;0.10;;;;;;;13.35;93.59;101960.19;10491661;28;20027;-58
2021/08/20 21:28:42;;;;;;;0.10;0.10;;;;;;;13.30;93.98;101956.28;10524959;28;20059;-57
2021/08/20 21:33:42;;;;;;;0.10;0.10;;;;;;;13.26;93.79;101958.38;10534588;28;20024;-58
2021/08/20 21:38:42;;;;;;;0.10;0.10;;;;;;;13.23;93.89;101964.00;10535143;28;20131;-57
2021/08/20 21:43:43;;;;;;;0.10;0.10;;;;;;;13.13;93.72;101964.06;10513876;28;20507;-58
2021/08/20 21:48:43;;;;;;;0.10;0.10;;;;;;;13.00;93.98;101963.56;10492748;28;20033;-58
2021/08/20 21:53:43;;;;;;;0.10;0.10;;;;;;;12.91;93.62;101954.59;10492257;28;20498;-58
2021/08/20 22:03:50;;;;;;;0.10;0.10;;;;;;;12.78;94.70;101963.94;10521654;28;20157;-62
2021/08/20 22:08:50;;;;;;;0.10;0.10;;;;;;;12.72;94.47;101969.88;10491861;28;20047;-61
2021/08/20 22:13:50;;;;;;;0.10;0.10;;;;;;;12.60;93.78;101972.69;10469411;28;20036;-61
2021/08/20 22:18:50;;;;;;;0.10;0.10;;;;;;;12.46;94.39;101971.31;10470497;28;20020;-61
2021/08/20 22:23:51;;;;;;;0.10;0.10;;;;;;;12.41;94.63;101967.38;10490082;28;20020;-61
2021/08/20 22:28:51;;;;;;;0.10;0.10;;;;;;;12.34;95.50;101966.28;10490028;28;20024;-61
2021/08/20 22:33:51;;;;;;;0.10;0.10;;;;;;;12.26;95.75;101968.81;10475803;28;20036;-62
2021/08/20 22:38:52;;;;;;;0.10;0.10;;;;;;;12.16;95.28;101969.69;10452109;28;20025;-61
2021/08/20 22:43:52;;;;;;;0.10;0.10;;;;;;;12.10;95.99;101970.25;10531517;28;20468;-61
2021/08/20 22:48:52;;;;;;;0.10;0.10;;;;;;;12.12;96.65;101980.78;10531564;28;20024;-61
2021/08/20 22:53:55;;;;;;;0.10;0.10;;;;;;;12.03;96.01;101987.81;10531749;28;20020;-61
2021/08/20 22:58:55;;;;;;;0.10;0.10;;;;;;;11.94;95.67;101991.31;10531004;28;20028;-61
2021/08/20 23:03:55;;;;;;;0.32;0.32;;;;;;;11.88;95.80;101989.22;10531903;28;20024;-61
2021/08/20 23:08:55;;;;;;;0.10;0.10;;;;;;;11.75;94.46;101987.63;10535476;28;20063;-61